createdAt,value
2023-03-03T00:01:33.743Z,96085.06
2023-03-03T00:04:00.822Z,96084.47
2023-03-03T00:06:31.028Z,96078.81
2023-03-03T00:09:00.883Z,96090.97
2023-03-03T00:11:28.803Z,96094.25
2023-03-03T00:13:57.936Z,96084.88
2023-03-03T00:16:42.939Z,96085.63
2023-03-03T00:19:19.651Z,96084.00
2023-03-03T00:21:48.124Z,96072.28
2023-03-03T00:24:24.811Z,96076.13
2023-03-03T00:27:00.824Z,96073.91
2023-03-03T00:29:41.194Z,96053.69
2023-03-03T00:32:16.166Z,96073.75
2023-03-03T00:34:44.015Z,96074.03
2023-03-03T00:37:31.319Z,96069.56
2023-03-03T00:40:21.548Z,96058.91
2023-03-03T00:42:56.487Z,96083.22
2023-03-03T00:45:30.700Z,96092.72
2023-03-03T00:48:20.389Z,96082.78
2023-03-03T00:50:47.386Z,96079.50
2023-03-03T00:53:19.158Z,96103.25
2023-03-03T00:55:50.468Z,96091.84
2023-03-03T00:58:25.817Z,96089.59
2023-03-03T01:00:58.958Z,96076.78
2023-03-03T01:03:48.725Z,96082.31
2023-03-03T01:06:15.484Z,96061.22
2023-03-03T01:08:47.891Z,96075.44
2023-03-03T01:11:23.203Z,96077.28
2023-03-03T01:13:54.284Z,96108.22
2023-03-03T01:16:21.740Z,96092.69
2023-03-03T01:18:52.052Z,96098.34
2023-03-03T01:21:18.732Z,96098.63
2023-03-03T01:23:49.973Z,96068.94
2023-03-03T01:26:17.109Z,96079.03
2023-03-03T01:28:48.514Z,96068.78
2023-03-03T01:31:20.175Z,96083.91
2023-03-03T01:33:52.211Z,96065.50
2023-03-03T01:36:24.677Z,96074.72
2023-03-03T01:38:53.751Z,96078.13
2023-03-03T01:41:22.901Z,96081.09
2023-03-03T01:43:53.279Z,96079.44
2023-03-03T01:46:29.917Z,96057.78
2023-03-03T01:49:03.972Z,96065.50
2023-03-03T01:51:44.825Z,96075.44
2023-03-03T01:54:23.029Z,96056.47
2023-03-03T01:56:53.314Z,96068.63
2023-03-03T01:59:27.216Z,96070.06
2023-03-03T02:01:58.449Z,96025.13
2023-03-03T02:04:26.920Z,96046.38
2023-03-03T02:07:07.039Z,96057.69
2023-03-03T02:09:51.156Z,96066.69
2023-03-03T02:12:20.490Z,96062.25
2023-03-03T02:14:47.173Z,96063.88
2023-03-03T02:17:16.456Z,96060.81
2023-03-03T02:19:43.063Z,96063.34
2023-03-03T02:22:14.633Z,96043.13
2023-03-03T02:24:57.552Z,96060.69
2023-03-03T02:27:24.413Z,96075.25
2023-03-03T02:29:56.417Z,96065.56
2023-03-03T02:32:25.706Z,96069.16
2023-03-03T02:34:53.018Z,96078.53
2023-03-03T02:37:20.536Z,96072.13
2023-03-03T02:39:47.890Z,96058.34
2023-03-03T02:42:24.815Z,96051.53
2023-03-03T02:44:54.634Z,96036.38
2023-03-03T02:47:25.962Z,96063.09
2023-03-03T02:49:55.116Z,96047.66
2023-03-03T02:52:24.322Z,96049.13
2023-03-03T02:54:53.288Z,96057.47
2023-03-03T02:57:19.911Z,96053.59
2023-03-03T02:59:48.607Z,96050.50
2023-03-03T03:02:22.555Z,96058.84
2023-03-03T03:04:54.273Z,96020.09
2023-03-03T03:07:24.544Z,96060.94
2023-03-03T03:09:52.096Z,96066.41
2023-03-03T03:12:19.461Z,96053.81
2023-03-03T03:14:53.529Z,96072.66
2023-03-03T03:17:20.238Z,96062.88
2023-03-03T03:19:52.049Z,96057.81
2023-03-03T03:22:22.164Z,96063.75
2023-03-03T03:24:52.465Z,96068.97
2023-03-03T03:27:19.438Z,96061.06
2023-03-03T03:29:51.128Z,96054.09
2023-03-03T03:32:18.482Z,96071.03
2023-03-03T03:34:47.710Z,96053.38
2023-03-03T03:37:17.269Z,96066.31
2023-03-03T03:39:46.087Z,96066.47
2023-03-03T03:42:13.653Z,96033.94
2023-03-03T03:44:45.677Z,96069.59
2023-03-03T03:47:15.222Z,96049.97
2023-03-03T03:49:44.669Z,96054.44
2023-03-03T03:52:12.237Z,96054.88
2023-03-03T03:54:42.761Z,96054.59
2023-03-03T03:57:11.680Z,96067.97
2023-03-03T03:59:43.992Z,96054.16
2023-03-03T04:02:10.836Z,96062.16
2023-03-03T04:04:40.154Z,96055.31
2023-03-03T04:07:07.224Z,96065.56
2023-03-03T04:09:35.067Z,96081.16
2023-03-03T04:12:07.927Z,96071.50
2023-03-03T04:14:37.683Z,96053.28
2023-03-03T04:17:16.342Z,96074.63
2023-03-03T04:19:45.997Z,96068.09
2023-03-03T04:22:16.253Z,96060.22
2023-03-03T04:24:48.693Z,96059.50
2023-03-03T04:27:16.867Z,96047.47
2023-03-03T04:29:46.374Z,96064.69
2023-03-03T04:32:13.083Z,96066.94
2023-03-03T04:34:42.112Z,96058.16
2023-03-03T04:37:11.550Z,96092.16
2023-03-03T04:39:38.454Z,96065.28
2023-03-03T04:42:07.914Z,96064.38
2023-03-03T04:44:37.246Z,96073.47
2023-03-03T04:47:04.688Z,96065.88
2023-03-03T04:49:31.859Z,96071.09
2023-03-03T04:52:06.290Z,96076.13
2023-03-03T04:54:37.136Z,96057.13
2023-03-03T04:57:04.260Z,96070.63
2023-03-03T04:59:33.338Z,96060.22
2023-03-03T05:02:04.729Z,96064.84
2023-03-03T05:04:31.583Z,96055.78
2023-03-03T05:07:02.971Z,96059.78
2023-03-03T05:09:29.688Z,96049.25
2023-03-03T05:11:56.563Z,96061.88
2023-03-03T05:14:31.513Z,96052.06
2023-03-03T05:17:00.596Z,96054.28
2023-03-03T05:19:30.655Z,96048.38
2023-03-03T05:21:57.723Z,96049.25
2023-03-03T05:24:29.664Z,96058.59
2023-03-03T05:26:56.355Z,96066.94
2023-03-03T05:29:25.291Z,96082.97
2023-03-03T05:31:56.648Z,96067.94
2023-03-03T05:34:25.851Z,96075.06
2023-03-03T05:36:52.536Z,96058.16
2023-03-03T05:39:21.455Z,96074.06
2023-03-03T05:41:48.154Z,96074.34
2023-03-03T05:44:19.099Z,96090.38
2023-03-03T05:46:47.245Z,96089.94
2023-03-03T05:49:13.943Z,96092.75
2023-03-03T05:51:40.823Z,96083.38
2023-03-03T05:54:07.457Z,96086.50
2023-03-03T05:56:36.523Z,96098.41
2023-03-03T05:59:08.658Z,96097.66
2023-03-03T06:01:37.612Z,96095.25
2023-03-03T06:04:06.827Z,96104.78
2023-03-03T06:06:38.222Z,96096.44
2023-03-03T06:09:07.229Z,96095.56
2023-03-03T06:11:38.867Z,96111.75
2023-03-03T06:14:05.560Z,96113.38
2023-03-03T06:16:39.650Z,96109.81
2023-03-03T06:19:06.606Z,96116.66
2023-03-03T06:21:35.432Z,96120.97
2023-03-03T06:24:02.947Z,96125.28
2023-03-03T06:26:33.416Z,96137.28
2023-03-03T06:29:00.910Z,96135.38
2023-03-03T06:31:28.515Z,96115.63
2023-03-03T06:33:55.226Z,96121.44
2023-03-03T06:36:25.661Z,96116.19
2023-03-03T06:38:52.638Z,96126.78
2023-03-03T06:41:24.162Z,96128.97
2023-03-03T06:43:56.684Z,96128.69
2023-03-03T06:46:26.768Z,96137.16
2023-03-03T06:48:57.947Z,96150.97
2023-03-03T06:51:29.952Z,96141.75
2023-03-03T06:54:02.811Z,96129.00
2023-03-03T06:56:36.035Z,96134.63
2023-03-03T06:59:06.438Z,96133.91
2023-03-03T07:01:37.282Z,96135.38
2023-03-03T07:04:21.645Z,96146.38
2023-03-03T07:06:50.901Z,96136.25
2023-03-03T07:09:30.862Z,96147.41
2023-03-03T07:12:06.784Z,96149.50
2023-03-03T07:14:35.964Z,96145.03
2023-03-03T07:17:12.058Z,96160.16
2023-03-03T07:19:43.277Z,96146.66
2023-03-03T07:22:24.535Z,96161.66
2023-03-03T07:24:53.896Z,96164.91
2023-03-03T07:27:22.718Z,96166.69
2023-03-03T07:29:54.935Z,96163.16
2023-03-03T07:32:36.643Z,96164.94
2023-03-03T07:35:21.730Z,96177.41
2023-03-03T07:37:51.625Z,96148.59
2023-03-03T07:40:24.433Z,96189.88
2023-03-03T07:42:55.929Z,96176.94
2023-03-03T07:45:36.568Z,96179.94
2023-03-03T07:48:16.728Z,96188.09
2023-03-03T07:50:46.251Z,96187.53
2023-03-03T07:53:20.577Z,96196.16
2023-03-03T07:55:49.907Z,96171.94
2023-03-03T07:58:24.614Z,96191.66
2023-03-03T08:01:23.157Z,96188.69
2023-03-03T08:03:51.413Z,96178.59
2023-03-03T08:06:38.810Z,96186.03
2023-03-03T08:09:11.591Z,96186.94
2023-03-03T08:11:49.935Z,96183.19
2023-03-03T08:14:31.720Z,96183.34
2023-03-03T08:17:00.611Z,96187.94
2023-03-03T08:19:31.275Z,96182.31
2023-03-03T08:22:13.976Z,96194.78
2023-03-03T08:24:43.117Z,96192.84
2023-03-03T08:27:09.743Z,96202.38
2023-03-03T08:29:43.546Z,96198.19
2023-03-03T08:32:10.319Z,96205.81
2023-03-03T08:34:39.512Z,96202.22
2023-03-03T08:37:08.427Z,96200.88
2023-03-03T08:39:37.303Z,96195.66
2023-03-03T08:42:11.556Z,96210.81
2023-03-03T08:44:43.811Z,96197.59
2023-03-03T08:47:17.933Z,96197.88
2023-03-03T08:49:46.935Z,96191.03
2023-03-03T08:52:18.587Z,96208.44
2023-03-03T08:54:47.665Z,96205.63
2023-03-03T08:57:14.377Z,96207.97
2023-03-03T08:59:47.863Z,96211.72
2023-03-03T09:02:17.203Z,96203.09
2023-03-03T09:04:50.734Z,96213.78
2023-03-03T09:07:19.662Z,96208.13
2023-03-03T09:09:51.106Z,96217.03
2023-03-03T09:12:43.883Z,96211.53
2023-03-03T09:15:36.132Z,96214.34
2023-03-03T09:18:14.064Z,96218.81
2023-03-03T09:20:48.934Z,96227.44
2023-03-03T09:23:29.952Z,96211.50
2023-03-03T09:25:58.286Z,96220.88
2023-03-03T09:28:31.329Z,96226.06
2023-03-03T09:31:07.356Z,96222.66
2023-03-03T09:33:59.466Z,96231.72
2023-03-03T09:36:35.487Z,96219.22
2023-03-03T09:39:19.395Z,96229.59
2023-03-03T09:42:09.342Z,96237.31
2023-03-03T09:45:02.267Z,96245.50
2023-03-03T09:48:04.360Z,96242.81
2023-03-03T09:50:46.236Z,96248.63
2023-03-03T09:53:31.998Z,96245.94
2023-03-03T09:56:08.356Z,96233.56
2023-03-03T09:59:07.862Z,96235.94
2023-03-03T10:01:37.556Z,96236.09
2023-03-03T10:04:21.771Z,96249.31
2023-03-03T10:07:16.172Z,96249.44
2023-03-03T10:10:06.436Z,96253.28
2023-03-03T10:12:51.635Z,96258.94
2023-03-03T10:15:30.491Z,96260.59
2023-03-03T10:18:12.072Z,96259.25
2023-03-03T10:21:04.632Z,96264.56
2023-03-03T10:23:42.400Z,96264.84
2023-03-03T10:26:44.851Z,96261.84
2023-03-03T10:29:34.175Z,96264.69
2023-03-03T10:32:31.387Z,96260.00
2023-03-03T10:35:16.352Z,96258.81
2023-03-03T10:37:49.036Z,96259.69
2023-03-03T10:40:54.714Z,96262.09
2023-03-03T10:43:32.830Z,96254.19
2023-03-03T10:46:25.739Z,96255.94
2023-03-03T10:49:14.342Z,96261.16
2023-03-03T10:51:43.939Z,96264.13
2023-03-03T10:54:23.397Z,96263.03
2023-03-03T10:57:20.073Z,96266.88
2023-03-03T11:00:10.980Z,96270.59
2023-03-03T11:02:53.573Z,96267.31
2023-03-03T11:05:32.847Z,96274.47
2023-03-03T11:08:03.607Z,96266.69
2023-03-03T11:10:49.175Z,96271.41
2023-03-03T11:14:06.867Z,96283.63
2023-03-03T11:16:51.769Z,96285.25
2023-03-03T11:19:37.348Z,96284.03
2023-03-03T11:22:07.818Z,96272.97
2023-03-03T11:24:34.374Z,96273.72
2023-03-03T11:27:38.170Z,96278.66
2023-03-03T11:30:16.818Z,96261.38
2023-03-03T11:32:46.607Z,96273.25
2023-03-03T11:35:26.743Z,96269.06
2023-03-03T11:38:02.040Z,96269.97
2023-03-03T11:40:38.105Z,96242.41
2023-03-03T11:43:35.641Z,96243.50
2023-03-03T11:46:46.392Z,96250.47
2023-03-03T11:49:28.959Z,96240.00
2023-03-03T11:52:18.266Z,96236.09
2023-03-03T11:54:47.820Z,96240.66
2023-03-03T11:57:48.056Z,96243.16
2023-03-03T12:00:23.362Z,96236.63
2023-03-03T12:03:10.751Z,96244.41
2023-03-03T12:05:46.304Z,96239.75
2023-03-03T12:08:50.767Z,96235.06
2023-03-03T12:11:27.524Z,96215.59
2023-03-03T12:14:09.457Z,96226.22
2023-03-03T12:17:14.940Z,96229.19
2023-03-03T12:20:09.844Z,96225.00
2023-03-03T12:23:10.447Z,96235.13
2023-03-03T12:25:42.403Z,96235.13
2023-03-03T12:28:13.644Z,96232.66
2023-03-03T12:30:58.662Z,96235.63
2023-03-03T12:33:34.079Z,96236.53
2023-03-03T12:36:15.999Z,96230.34
2023-03-03T12:38:57.829Z,96228.53
2023-03-03T12:41:35.562Z,96224.44
2023-03-03T12:44:05.114Z,96219.66
2023-03-03T12:46:46.436Z,96215.72
2023-03-03T12:49:17.781Z,96210.03
2023-03-03T12:52:08.385Z,96217.44
2023-03-03T12:54:40.099Z,96218.81
2023-03-03T12:57:20.505Z,96214.88
2023-03-03T12:59:53.206Z,96220.03
2023-03-03T13:02:28.993Z,96215.25
2023-03-03T13:05:03.577Z,96208.31
2023-03-03T13:07:56.716Z,96212.78
2023-03-03T13:10:58.954Z,96222.28
2023-03-03T13:13:30.452Z,96207.59
2023-03-03T13:16:22.218Z,96212.78
2023-03-03T13:19:00.363Z,72854.09
2023-03-03T13:21:44.953Z,72854.09
2023-03-03T13:24:41.649Z,72854.09
2023-03-03T13:27:16.362Z,72854.09
2023-03-03T13:29:50.170Z,72854.09
2023-03-03T13:32:22.311Z,72854.09
2023-03-03T13:35:04.483Z,72854.09
2023-03-03T13:37:43.647Z,72854.09
2023-03-03T13:40:13.543Z,72854.09
2023-03-03T13:43:02.775Z,72854.09
2023-03-03T13:45:38.583Z,72854.09
2023-03-03T13:48:10.616Z,72854.09
2023-03-03T13:51:04.713Z,72854.09
2023-03-03T13:53:49.926Z,72854.09
2023-03-03T13:56:21.192Z,72854.09
2023-03-03T13:59:03.880Z,72854.09
2023-03-03T14:02:04.716Z,96207.34
2023-03-03T14:04:55.498Z,96178.91
2023-03-03T14:07:52.474Z,96163.09
2023-03-03T14:10:28.399Z,96171.47
2023-03-03T14:13:04.685Z,96162.44
2023-03-03T14:15:36.951Z,96163.16
2023-03-03T14:18:28.236Z,96155.53
2023-03-03T14:21:12.379Z,96161.56
2023-03-03T14:24:02.765Z,96151.66
2023-03-03T14:26:34.362Z,96131.91
2023-03-03T14:29:22.226Z,96153.50
2023-03-03T14:31:51.195Z,96148.56
2023-03-03T14:34:23.924Z,96150.16
2023-03-03T14:36:54.056Z,96154.59
2023-03-03T14:39:38.965Z,96153.34
2023-03-03T14:42:31.383Z,96134.47
2023-03-03T14:45:02.600Z,96144.94
2023-03-03T14:47:29.920Z,96136.16
2023-03-03T14:50:03.785Z,96144.41
2023-03-03T14:52:37.501Z,96153.03
2023-03-03T14:55:34.243Z,96153.28
2023-03-03T14:58:04.235Z,96146.41
2023-03-03T15:00:36.772Z,96151.91
2023-03-03T15:03:26.977Z,72854.09
2023-03-03T15:05:58.796Z,72854.09
2023-03-03T15:08:36.332Z,72854.09
2023-03-03T15:11:16.408Z,72854.09
2023-03-03T15:13:48.274Z,72854.09
2023-03-03T15:16:33.702Z,72854.09
2023-03-03T15:19:28.170Z,72854.09
2023-03-03T15:22:05.604Z,72854.09
2023-03-03T15:24:44.537Z,72854.09
2023-03-03T15:27:27.627Z,72854.09
2023-03-03T15:30:23.337Z,72854.09
2023-03-03T15:33:20.792Z,72854.09
2023-03-03T15:35:52.728Z,72854.09
2023-03-03T15:38:40.511Z,72854.09
2023-03-03T15:41:13.226Z,72854.09
2023-03-03T15:44:29.276Z,72854.09
2023-03-03T15:47:15.740Z,72854.09
2023-03-03T15:50:08.947Z,72854.09
2023-03-03T15:52:44.371Z,72854.09
2023-03-03T15:55:21.442Z,72854.09
2023-03-03T15:58:10.170Z,96154.25
2023-03-03T16:00:55.876Z,96164.28
2023-03-03T16:03:35.209Z,96155.84
2023-03-03T16:06:09.213Z,96160.94
2023-03-03T16:08:49.435Z,96163.06
2023-03-03T16:11:27.387Z,96159.44
2023-03-03T16:14:18.906Z,96170.22
2023-03-03T16:17:14.602Z,96172.31
2023-03-03T16:19:51.483Z,96175.78
2023-03-03T16:22:36.881Z,96165.91
2023-03-03T16:25:24.432Z,96172.81
2023-03-03T16:28:00.708Z,96160.72
2023-03-03T16:30:44.863Z,96137.69
2023-03-03T16:33:21.901Z,96178.38
2023-03-03T16:36:00.210Z,96177.03
2023-03-03T16:38:43.812Z,96179.88
2023-03-03T16:41:23.436Z,96186.78
2023-03-03T16:43:59.992Z,96183.94
2023-03-03T16:46:43.386Z,96191.00
2023-03-03T16:49:43.678Z,96188.25
2023-03-03T16:52:14.698Z,96189.41
2023-03-03T16:54:55.008Z,96198.31
2023-03-03T16:57:48.386Z,96198.16
2023-03-03T17:00:22.463Z,96213.63
2023-03-03T17:03:04.536Z,96201.53
2023-03-03T17:05:40.459Z,96205.63
2023-03-03T17:08:09.448Z,96213.28
2023-03-03T17:11:05.111Z,96214.78
2023-03-03T17:13:40.999Z,96210.44
2023-03-03T17:16:50.047Z,96212.34
2023-03-03T17:19:57.333Z,96215.06
2023-03-03T17:22:30.170Z,96214.94
2023-03-03T17:25:18.507Z,96225.44
2023-03-03T17:28:21.448Z,96231.16
2023-03-03T17:31:02.633Z,96233.88
2023-03-03T17:33:52.142Z,96240.81
2023-03-03T17:36:30.542Z,96240.06
2023-03-03T17:39:18.908Z,96237.72
2023-03-03T17:42:13.496Z,96234.75
2023-03-03T17:45:02.710Z,96246.13
2023-03-03T17:48:00.654Z,96250.34
2023-03-03T17:50:39.431Z,96251.59
2023-03-03T17:53:27.957Z,96247.28
2023-03-03T17:56:22.096Z,96251.25
2023-03-03T17:59:35.960Z,96260.25
2023-03-03T18:02:24.074Z,96260.13
2023-03-03T18:05:20.215Z,96267.81
2023-03-03T18:08:08.403Z,96266.94
2023-03-03T18:10:53.379Z,96266.59
2023-03-03T18:13:57.590Z,96266.94
2023-03-03T18:16:45.622Z,96268.81
2023-03-03T18:20:06.625Z,96269.31
2023-03-03T18:22:43.564Z,96266.47
2023-03-03T18:25:19.012Z,96271.44
2023-03-03T18:28:08.414Z,96282.53
2023-03-03T18:30:57.774Z,96279.47
2023-03-03T18:33:43.847Z,96269.09
2023-03-03T18:36:26.596Z,96286.50
2023-03-03T18:38:58.762Z,96285.50
2023-03-03T18:41:33.380Z,96276.34
2023-03-03T18:44:04.616Z,96274.75
2023-03-03T18:46:33.590Z,96289.84
2023-03-03T18:49:12.690Z,96287.09
2023-03-03T18:51:39.318Z,96292.28
2023-03-03T18:54:18.589Z,96292.84
2023-03-03T18:56:56.003Z,96296.06
2023-03-03T18:59:32.262Z,96302.19
2023-03-03T19:02:07.365Z,96287.03
2023-03-03T19:04:38.203Z,96277.97
2023-03-03T19:07:10.933Z,96304.41
2023-03-03T19:10:03.785Z,96287.47
2023-03-03T19:12:52.658Z,96307.75
2023-03-03T19:15:31.609Z,96307.47
2023-03-03T19:18:26.245Z,96310.78
2023-03-03T19:21:00.806Z,96288.63
2023-03-03T19:24:00.200Z,96312.97
2023-03-03T19:26:36.201Z,96303.44
2023-03-03T19:29:05.738Z,96309.00
2023-03-03T19:31:51.309Z,96304.28
2023-03-03T19:34:52.263Z,96309.22
2023-03-03T19:37:58.063Z,96285.28
2023-03-03T19:40:30.939Z,96310.84
2023-03-03T19:43:19.335Z,96319.72
2023-03-03T19:45:54.998Z,96313.63
2023-03-03T19:48:38.684Z,96300.25
2023-03-03T19:51:13.322Z,96317.78
2023-03-03T19:54:16.924Z,96321.97
2023-03-03T19:57:02.412Z,96305.84
2023-03-03T19:59:43.802Z,96321.03
2023-03-03T20:02:41.796Z,96327.50
2023-03-03T20:05:28.504Z,96326.06
2023-03-03T20:08:15.392Z,96313.75
2023-03-03T20:10:55.579Z,96350.41
2023-03-03T20:13:46.612Z,96318.44
2023-03-03T20:16:19.610Z,96339.88
2023-03-03T20:19:04.603Z,96332.44
2023-03-03T20:21:34.032Z,96331.41
2023-03-03T20:24:21.480Z,96333.34
2023-03-03T20:27:16.381Z,96326.47
2023-03-03T20:29:54.385Z,96335.59
2023-03-03T20:32:26.800Z,96330.38
2023-03-03T20:35:12.770Z,96325.66
2023-03-03T20:37:51.269Z,96330.31
2023-03-03T20:40:36.146Z,96337.16
2023-03-03T20:43:38.074Z,96345.97
2023-03-03T20:46:25.887Z,96335.72
2023-03-03T20:49:16.198Z,96346.13
2023-03-03T20:52:13.492Z,96344.06
2023-03-03T20:55:13.980Z,96343.91
2023-03-03T20:57:47.827Z,96332.47
2023-03-03T21:00:51.640Z,96346.59
2023-03-03T21:03:24.374Z,96341.41
2023-03-03T21:06:12.298Z,96343.34
2023-03-03T21:08:41.915Z,96345.00
2023-03-03T21:11:09.273Z,96345.47
2023-03-03T21:13:44.270Z,96349.63
2023-03-03T21:16:22.913Z,96345.00
2023-03-03T21:19:35.125Z,96348.31
2023-03-03T21:22:03.265Z,96351.44
2023-03-03T21:24:51.242Z,96338.34
2023-03-03T21:27:31.858Z,96346.25
2023-03-03T21:30:17.025Z,92024.81
2023-03-03T21:32:51.630Z,96347.59
2023-03-03T21:35:24.354Z,96344.91
2023-03-03T21:37:55.697Z,96349.84
2023-03-03T21:40:25.440Z,96347.44
2023-03-03T21:43:00.007Z,96345.97
2023-03-03T21:45:34.351Z,96336.91
2023-03-03T21:48:04.075Z,96347.75
2023-03-03T21:50:36.100Z,96331.41
2023-03-03T21:53:05.035Z,96345.25
2023-03-03T21:55:31.761Z,96355.34
2023-03-03T21:57:58.368Z,96345.97
2023-03-03T22:00:25.013Z,96334.97
2023-03-03T22:02:59.234Z,96355.94
2023-03-03T22:05:25.878Z,96357.13
2023-03-03T22:07:54.928Z,96338.25
2023-03-03T22:10:23.674Z,96341.50
2023-03-03T22:12:55.537Z,96358.31
2023-03-03T22:15:27.852Z,96340.31
2023-03-03T22:18:04.589Z,96342.69
2023-03-03T22:20:33.760Z,96351.50
2023-03-03T22:23:07.852Z,96360.72
2023-03-03T22:25:34.554Z,96352.66
2023-03-03T22:28:03.826Z,96353.13
2023-03-03T22:30:32.991Z,96359.22
2023-03-03T22:33:03.030Z,96348.22
2023-03-03T22:35:32.099Z,96367.09
2023-03-03T22:37:58.840Z,96365.63
2023-03-03T22:40:33.767Z,96371.13
2023-03-03T22:43:02.664Z,96357.88
2023-03-03T22:45:32.122Z,96360.13
2023-03-03T22:48:03.606Z,96366.22
2023-03-03T22:50:30.221Z,96369.19
2023-03-03T22:52:56.885Z,96357.16
2023-03-03T22:55:26.000Z,96348.66
2023-03-03T22:57:56.929Z,96364.59
2023-03-03T23:00:26.176Z,96367.97
2023-03-03T23:03:00.237Z,96364.88
2023-03-03T23:05:29.390Z,96362.81
2023-03-03T23:07:58.316Z,96359.50
2023-03-03T23:10:27.711Z,96352.53
2023-03-03T23:12:54.593Z,96361.16
2023-03-03T23:15:23.644Z,96349.84
2023-03-03T23:17:50.406Z,96350.28
2023-03-03T23:20:22.270Z,96349.25
2023-03-03T23:22:52.272Z,96340.47
2023-03-03T23:25:24.559Z,96355.94
2023-03-03T23:27:53.602Z,96344.06
2023-03-03T23:30:25.468Z,96352.66
2023-03-03T23:32:54.372Z,96347.75
2023-03-03T23:35:23.450Z,96339.41
2023-03-03T23:37:50.463Z,96342.38
2023-03-03T23:40:19.330Z,96340.75
2023-03-03T23:42:46.058Z,96343.56
2023-03-03T23:45:16.226Z,96362.03
2023-03-03T23:47:45.778Z,96342.09
2023-03-03T23:50:17.192Z,96369.78
2023-03-03T23:52:49.091Z,96347.16
2023-03-03T23:55:20.239Z,96352.22
2023-03-03T23:57:47.061Z,96355.78
